Terminal Aerodrome Forecast
Issued by NWS

Home | Current Version | Previous Version | Text Only | Print | Product List | Glossary On
Versions: 1 2 3 4 5 6 7 8 9 10 11 12 13 14 15 16
347
FTUS43 KFGF 271726
TAFTVF
TAF
KTVF 271726Z 2718/2818 VRB05KT P6SM BKN200
     FM272200 VRB05KT P6SM VCSH BKN100
     FM280300 06006KT P6SM OVC200
     FM280900 02005KT P6SM SCT020 BKN035
      AMD LTD TO CLD VIS AND WIND=

USA.gov is the U.S. government's official web portal to all federal, state and local government web resources and services.